sensor_id;sensor_type;location;lat;lon;timestamp;temperature;humidity
7784;DHT22;19359;51.402;6.778;2022-12-16T00:09:55;-8.10;7.20
7784;DHT22;19359;51.402;6.778;2022-12-16T00:12:22;-7.60;1.00
7784;DHT22;19359;51.402;6.778;2022-12-16T00:14:49;-7.60;4.10
7784;DHT22;19359;51.402;6.778;2022-12-16T00:19:44;-6.10;1.00
7784;DHT22;19359;51.402;6.778;2022-12-16T00:22:11;-7.60;6.50
7784;DHT22;19359;51.402;6.778;2022-12-16T00:24:37;-7.60;16.40
7784;DHT22;19359;51.402;6.778;2022-12-16T00:29:31;-7.60;12.00
7784;DHT22;19359;51.402;6.778;2022-12-16T00:31:58;-7.60;7.70
7784;DHT22;19359;51.402;6.778;2022-12-16T00:36:53;-7.60;4.70
7784;DHT22;19359;51.402;6.778;2022-12-16T00:39:20;-7.70;1.00
7784;DHT22;19359;51.402;6.778;2022-12-16T00:41:47;-7.70;1.00
7784;DHT22;19359;51.402;6.778;2022-12-16T00:44:15;-7.50;1.00
7784;DHT22;19359;51.402;6.778;2022-12-16T00:49:09;-7.60;1.00
7784;DHT22;19359;51.402;6.778;2022-12-16T00:51:36;-7.70;1.00
7784;DHT22;19359;51.402;6.778;2022-12-16T00:54:04;-7.60;7.60
7784;DHT22;19359;51.402;6.778;2022-12-16T00:56:30;-7.70;1.00
7784;DHT22;19359;51.402;6.778;2022-12-16T00:58:57;-7.70;1.00
7784;DHT22;19359;51.402;6.778;2022-12-16T01:01:24;-7.70;1.00
7784;DHT22;19359;51.402;6.778;2022-12-16T01:03:51;-7.70;1.00
7784;DHT22;19359;51.402;6.778;2022-12-16T01:16:08;-7.70;1.00
7784;DHT22;19359;51.402;6.778;2022-12-16T01:18:35;-7.70;1.00
7784;DHT22;19359;51.402;6.778;2022-12-16T01:21:03;-7.70;10.50
7784;DHT22;19359;51.402;6.778;2022-12-16T01:23:30;-8.00;11.30
7784;DHT22;19359;51.402;6.778;2022-12-16T01:25:58;-7.70;1.00
7784;DHT22;19359;51.402;6.778;2022-12-16T01:28:27;-7.50;1.00
7784;DHT22;19359;51.402;6.778;2022-12-16T01:30:54;-7.70;7.10
7784;DHT22;19359;51.402;6.778;2022-12-16T01:33:26;-7.80;4.30
7784;DHT22;19359;51.402;6.778;2022-12-16T01:38:24;-7.60;1.00
7784;DHT22;19359;51.402;6.778;2022-12-16T01:40:51;-7.70;3.90
7784;DHT22;19359;51.402;6.778;2022-12-16T01:43:22;-7.80;9.40
7784;DHT22;19359;51.402;6.778;2022-12-16T01:48:21;-7.80;1.00
7784;DHT22;19359;51.402;6.778;2022-12-16T01:50:54;-7.70;1.00
7784;DHT22;19359;51.402;6.778;2022-12-16T01:53:24;-7.70;16.60
7784;DHT22;19359;51.402;6.778;2022-12-16T01:55:52;-7.00;25.10
7784;DHT22;19359;51.402;6.778;2022-12-16T01:58:23;-7.60;1.00
7784;DHT22;19359;51.402;6.778;2022-12-16T02:00:52;-7.70;1.00
7784;DHT22;19359;51.402;6.778;2022-12-16T02:03:19;-7.60;32.00
7784;DHT22;19359;51.402;6.778;2022-12-16T02:05:46;-7.60;29.10
7784;DHT22;19359;51.402;6.778;2022-12-16T02:08:16;-7.50;37.40
7784;DHT22;19359;51.402;6.778;2022-12-16T02:10:55;-7.50;46.80
7784;DHT22;19359;51.402;6.778;2022-12-16T02:13:32;-7.50;41.10
7784;DHT22;19359;51.402;6.778;2022-12-16T02:16:06;-7.60;1.00
7784;DHT22;19359;51.402;6.778;2022-12-16T02:18:42;-7.60;61.40
7784;DHT22;19359;51.402;6.778;2022-12-16T02:21:30;-7.50;55.10
7784;DHT22;19359;51.402;6.778;2022-12-16T02:24:25;-7.60;69.80
7784;DHT22;19359;51.402;6.778;2022-12-16T02:27:18;-7.60;1.00
7784;DHT22;19359;51.402;6.778;2022-12-16T02:30:04;-7.00;75.00
7784;DHT22;19359;51.402;6.778;2022-12-16T02:32:41;-7.50;24.00
7784;DHT22;19359;51.402;6.778;2022-12-16T02:35:14;-7.60;1.00
7784;DHT22;19359;51.402;6.778;2022-12-16T02:37:51;-7.60;1.00
7784;DHT22;19359;51.402;6.778;2022-12-16T02:40:23;-7.60;62.10
7784;DHT22;19359;51.402;6.778;2022-12-16T02:42:56;-7.10;58.10
7784;DHT22;19359;51.402;6.778;2022-12-16T02:45:28;-7.70;1.00
7784;DHT22;19359;51.402;6.778;2022-12-16T02:47:57;-7.70;68.50
7784;DHT22;19359;51.402;6.778;2022-12-16T02:50:29;-7.70;1.00
7784;DHT22;19359;51.402;6.778;2022-12-16T02:52:58;-7.60;61.60
7784;DHT22;19359;51.402;6.778;2022-12-16T02:55:31;-7.70;82.50
7784;DHT22;19359;51.402;6.778;2022-12-16T02:58:06;-7.70;90.80
7784;DHT22;19359;51.402;6.778;2022-12-16T03:00:41;-7.70;91.50
7784;DHT22;19359;51.402;6.778;2022-12-16T03:03:16;-7.60;1.00
7784;DHT22;19359;51.402;6.778;2022-12-16T03:05:46;-8.00;97.50
7784;DHT22;19359;51.402;6.778;2022-12-16T03:08:16;-7.50;99.90
7784;DHT22;19359;51.402;6.778;2022-12-16T03:10:48;-7.50;93.10
7784;DHT22;19359;51.402;6.778;2022-12-16T03:13:17;-7.50;1.00
7784;DHT22;19359;51.402;6.778;2022-12-16T03:15:47;-7.60;93.90
7784;DHT22;19359;51.402;6.778;2022-12-16T03:18:18;-7.70;1.00
7784;DHT22;19359;51.402;6.778;2022-12-16T03:20:51;-7.70;1.00
7784;DHT22;19359;51.402;6.778;2022-12-16T03:23:24;-7.70;94.70
7784;DHT22;19359;51.402;6.778;2022-12-16T03:25:56;-7.80;97.20
7784;DHT22;19359;51.402;6.778;2022-12-16T03:28:31;-7.70;1.00
7784;DHT22;19359;51.402;6.778;2022-12-16T03:31:06;-7.60;1.00
7784;DHT22;19359;51.402;6.778;2022-12-16T03:33:38;-7.70;1.00
7784;DHT22;19359;51.402;6.778;2022-12-16T03:36:11;-7.60;1.00
7784;DHT22;19359;51.402;6.778;2022-12-16T03:38:39;-7.80;1.00
7784;DHT22;19359;51.402;6.778;2022-12-16T03:41:07;-7.80;1.00
7784;DHT22;19359;51.402;6.778;2022-12-16T03:43:34;-7.40;1.00
7784;DHT22;19359;51.402;6.778;2022-12-16T03:46:04;-7.80;1.00
7784;DHT22;19359;51.402;6.778;2022-12-16T03:48:32;-7.90;1.00
7784;DHT22;19359;51.402;6.778;2022-12-16T03:51:01;-7.80;1.00
7784;DHT22;19359;51.402;6.778;2022-12-16T03:53:28;-7.80;1.00
7784;DHT22;19359;51.402;6.778;2022-12-16T04:05:44;-7.90;1.00
7784;DHT22;19359;51.402;6.778;2022-12-16T04:10:39;-8.10;49.70
7784;DHT22;19359;51.402;6.778;2022-12-16T04:13:23;-8.00;1.00
7784;DHT22;19359;51.402;6.778;2022-12-16T04:16:08;-8.30;52.50
7784;DHT22;19359;51.402;6.778;2022-12-16T04:18:57;-7.80;1.00
7784;DHT22;19359;51.402;6.778;2022-12-16T04:21:41;-7.70;1.00
7784;DHT22;19359;51.402;6.778;2022-12-16T04:24:28;-7.80;1.00
7784;DHT22;19359;51.402;6.778;2022-12-16T04:26:55;-7.90;1.00
7784;DHT22;19359;51.402;6.778;2022-12-16T04:29:40;-7.90;1.00
7784;DHT22;19359;51.402;6.778;2022-12-16T04:32:20;-8.00;1.00
7784;DHT22;19359;51.402;6.778;2022-12-16T04:34:47;-8.00;1.00
7784;DHT22;19359;51.402;6.778;2022-12-16T04:37:13;-8.00;1.00
7784;DHT22;19359;51.402;6.778;2022-12-16T04:39:59;-8.20;1.00
7784;DHT22;19359;51.402;6.778;2022-12-16T04:42:43;-8.20;1.00
7784;DHT22;19359;51.402;6.778;2022-12-16T04:45:27;-8.10;1.00
7784;DHT22;19359;51.402;6.778;2022-12-16T04:48:11;-8.20;1.00
7784;DHT22;19359;51.402;6.778;2022-12-16T04:50:55;-8.00;1.00
7784;DHT22;19359;51.402;6.778;2022-12-16T04:53:39;-7.90;1.00
7784;DHT22;19359;51.402;6.778;2022-12-16T04:59:09;-7.80;1.00
7784;DHT22;19359;51.402;6.778;2022-12-16T05:01:53;-7.90;14.50
7784;DHT22;19359;51.402;6.778;2022-12-16T05:07:22;-7.80;1.00
7784;DHT22;19359;51.402;6.778;2022-12-16T05:10:07;-7.80;1.00
7784;DHT22;19359;51.402;6.778;2022-12-16T05:12:53;-7.90;65.30
7784;DHT22;19359;51.402;6.778;2022-12-16T05:15:45;-7.30;8.70
7784;DHT22;19359;51.402;6.778;2022-12-16T05:18:30;-7.70;99.90
7784;DHT22;19359;51.402;6.778;2022-12-16T05:21:14;-7.80;48.10
7784;DHT22;19359;51.402;6.778;2022-12-16T05:23:58;-7.80;1.00
7784;DHT22;19359;51.402;6.778;2022-12-16T05:26:42;-7.80;1.00
7784;DHT22;19359;51.402;6.778;2022-12-16T05:29:28;-8.00;1.00
7784;DHT22;19359;51.402;6.778;2022-12-16T05:32:13;-7.90;1.00
7784;DHT22;19359;51.402;6.778;2022-12-16T05:34:57;-7.30;27.10
7784;DHT22;19359;51.402;6.778;2022-12-16T05:37:47;-8.10;19.80
7784;DHT22;19359;51.402;6.778;2022-12-16T05:40:31;-7.80;1.00
7784;DHT22;19359;51.402;6.778;2022-12-16T05:43:15;-7.80;1.00
7784;DHT22;19359;51.402;6.778;2022-12-16T05:45:57;-7.90;1.00
7784;DHT22;19359;51.402;6.778;2022-12-16T05:48:42;-7.30;1.00
7784;DHT22;19359;51.402;6.778;2022-12-16T05:51:26;-7.90;1.00
7784;DHT22;19359;51.402;6.778;2022-12-16T05:54:10;-7.90;1.00
7784;DHT22;19359;51.402;6.778;2022-12-16T05:56:54;-7.80;1.00
7784;DHT22;19359;51.402;6.778;2022-12-16T05:59:38;-7.80;1.00
7784;DHT22;19359;51.402;6.778;2022-12-16T06:02:23;-7.90;1.00
7784;DHT22;19359;51.402;6.778;2022-12-16T06:05:08;-8.00;1.00
7784;DHT22;19359;51.402;6.778;2022-12-16T06:07:52;-7.90;1.00
7784;DHT22;19359;51.402;6.778;2022-12-16T06:10:36;-8.00;1.00
7784;DHT22;19359;51.402;6.778;2022-12-16T06:13:21;-8.10;1.00
7784;DHT22;19359;51.402;6.778;2022-12-16T06:16:05;-8.10;1.00
7784;DHT22;19359;51.402;6.778;2022-12-16T06:21:36;-8.10;1.00
7784;DHT22;19359;51.402;6.778;2022-12-16T06:24:34;-8.10;1.00
7784;DHT22;19359;51.402;6.778;2022-12-16T06:27:19;-8.10;1.00
7784;DHT22;19359;51.402;6.778;2022-12-16T06:30:03;-8.10;1.00
7784;DHT22;19359;51.402;6.778;2022-12-16T06:35:34;-8.10;1.00
7784;DHT22;19359;51.402;6.778;2022-12-16T06:38:18;-8.10;1.00
7784;DHT22;19359;51.402;6.778;2022-12-16T06:41:02;-8.20;1.00
7784;DHT22;19359;51.402;6.778;2022-12-16T06:43:46;-8.40;1.00
7784;DHT22;19359;51.402;6.778;2022-12-16T06:46:30;-8.10;1.00
7784;DHT22;19359;51.402;6.778;2022-12-16T06:49:14;-8.10;1.00
7784;DHT22;19359;51.402;6.778;2022-12-16T06:52:00;-8.10;1.00
7784;DHT22;19359;51.402;6.778;2022-12-16T06:54:44;-8.10;1.00
7784;DHT22;19359;51.402;6.778;2022-12-16T06:57:28;-8.10;1.00
7784;DHT22;19359;51.402;6.778;2022-12-16T07:00:12;-8.00;1.00
7784;DHT22;19359;51.402;6.778;2022-12-16T07:02:57;-8.00;1.00
7784;DHT22;19359;51.402;6.778;2022-12-16T07:05:41;-8.10;1.00
7784;DHT22;19359;51.402;6.778;2022-12-16T07:08:26;-8.00;1.00
7784;DHT22;19359;51.402;6.778;2022-12-16T07:11:10;-7.90;1.00
7784;DHT22;19359;51.402;6.778;2022-12-16T07:13:54;-7.80;1.00
7784;DHT22;19359;51.402;6.778;2022-12-16T07:16:38;-7.70;1.00
7784;DHT22;19359;51.402;6.778;2022-12-16T07:19:22;-7.70;1.00
7784;DHT22;19359;51.402;6.778;2022-12-16T07:22:07;-7.60;1.00
7784;DHT22;19359;51.402;6.778;2022-12-16T07:24:52;-7.50;1.00
7784;DHT22;19359;51.402;6.778;2022-12-16T07:27:35;-7.40;1.00
7784;DHT22;19359;51.402;6.778;2022-12-16T07:30:20;-7.80;1.00
7784;DHT22;19359;51.402;6.778;2022-12-16T07:35:48;-7.10;1.00
7784;DHT22;19359;51.402;6.778;2022-12-16T07:41:18;-8.10;1.00
7784;DHT22;19359;51.402;6.778;2022-12-16T07:44:03;-7.00;1.00
7784;DHT22;19359;51.402;6.778;2022-12-16T07:46:47;-6.80;1.00
7784;DHT22;19359;51.402;6.778;2022-12-16T07:49:32;-6.70;1.00
7784;DHT22;19359;51.402;6.778;2022-12-16T07:52:16;-6.50;1.00
7784;DHT22;19359;51.402;6.778;2022-12-16T07:55:00;-6.50;1.00
7784;DHT22;19359;51.402;6.778;2022-12-16T07:57:51;-6.40;1.00
7784;DHT22;19359;51.402;6.778;2022-12-16T08:00:35;-6.20;1.00
7784;DHT22;19359;51.402;6.778;2022-12-16T08:03:20;-6.50;1.00
7784;DHT22;19359;51.402;6.778;2022-12-16T08:06:04;-7.40;1.00
7784;DHT22;19359;51.402;6.778;2022-12-16T08:08:48;-5.90;1.00
7784;DHT22;19359;51.402;6.778;2022-12-16T08:11:32;-5.80;1.00
7784;DHT22;19359;51.402;6.778;2022-12-16T08:14:18;-5.60;1.00
7784;DHT22;19359;51.402;6.778;2022-12-16T08:17:02;-5.60;1.00
7784;DHT22;19359;51.402;6.778;2022-12-16T08:19:48;-5.30;1.00
7784;DHT22;19359;51.402;6.778;2022-12-16T08:22:32;-5.40;1.00
7784;DHT22;19359;51.402;6.778;2022-12-16T08:25:17;-5.10;1.00
7784;DHT22;19359;51.402;6.778;2022-12-16T08:28:01;-5.20;1.00
7784;DHT22;19359;51.402;6.778;2022-12-16T08:30:50;-5.10;1.00
7784;DHT22;19359;51.402;6.778;2022-12-16T08:33:35;-5.00;1.00
7784;DHT22;19359;51.402;6.778;2022-12-16T08:36:22;-5.00;1.00
7784;DHT22;19359;51.402;6.778;2022-12-16T08:39:21;-4.90;1.00
7784;DHT22;19359;51.402;6.778;2022-12-16T08:42:05;-5.00;1.00
7784;DHT22;19359;51.402;6.778;2022-12-16T08:44:49;-4.60;1.00
7784;DHT22;19359;51.402;6.778;2022-12-16T08:47:35;-4.80;1.00
7784;DHT22;19359;51.402;6.778;2022-12-16T08:50:19;-4.60;1.00
7784;DHT22;19359;51.402;6.778;2022-12-16T08:53:03;-4.60;1.00
7784;DHT22;19359;51.402;6.778;2022-12-16T08:55:47;-4.60;1.00
7784;DHT22;19359;51.402;6.778;2022-12-16T08:58:31;-4.50;1.00
7784;DHT22;19359;51.402;6.778;2022-12-16T09:01:16;-4.40;1.00
7784;DHT22;19359;51.402;6.778;2022-12-16T09:04:03;-4.40;1.00
7784;DHT22;19359;51.402;6.778;2022-12-16T09:06:47;-4.30;1.00
7784;DHT22;19359;51.402;6.778;2022-12-16T09:09:32;-4.30;1.00
7784;DHT22;19359;51.402;6.778;2022-12-16T09:12:16;-4.20;1.00
7784;DHT22;19359;51.402;6.778;2022-12-16T09:15:00;-4.20;1.00
7784;DHT22;19359;51.402;6.778;2022-12-16T09:17:45;-4.20;1.00
7784;DHT22;19359;51.402;6.778;2022-12-16T09:20:30;-4.50;1.00
7784;DHT22;19359;51.402;6.778;2022-12-16T09:23:14;-4.10;1.00
7784;DHT22;19359;51.402;6.778;2022-12-16T09:26:01;-4.10;1.00
7784;DHT22;19359;51.402;6.778;2022-12-16T09:28:45;-4.10;1.00
7784;DHT22;19359;51.402;6.778;2022-12-16T09:31:29;-3.90;1.00
7784;DHT22;19359;51.402;6.778;2022-12-16T09:34:13;-3.90;1.00
7784;DHT22;19359;51.402;6.778;2022-12-16T09:36:59;-3.80;1.00
7784;DHT22;19359;51.402;6.778;2022-12-16T09:42:46;-3.80;1.00
7784;DHT22;19359;51.402;6.778;2022-12-16T09:45:35;-3.70;1.00
7784;DHT22;19359;51.402;6.778;2022-12-16T09:48:26;-3.60;1.00
7784;DHT22;19359;51.402;6.778;2022-12-16T09:51:08;-3.60;1.00
7784;DHT22;19359;51.402;6.778;2022-12-16T09:53:56;-3.50;1.00
7784;DHT22;19359;51.402;6.778;2022-12-16T09:56:44;-3.40;1.00
7784;DHT22;19359;51.402;6.778;2022-12-16T09:59:32;-3.40;1.00
7784;DHT22;19359;51.402;6.778;2022-12-16T10:02:18;-3.30;1.00
7784;DHT22;19359;51.402;6.778;2022-12-16T10:05:05;-3.40;1.00
7784;DHT22;19359;51.402;6.778;2022-12-16T10:07:58;-3.40;1.00
7784;DHT22;19359;51.402;6.778;2022-12-16T10:10:50;-3.40;1.00
7784;DHT22;19359;51.402;6.778;2022-12-16T10:13:47;-3.20;1.00
7784;DHT22;19359;51.402;6.778;2022-12-16T10:16:40;-3.30;1.00
7784;DHT22;19359;51.402;6.778;2022-12-16T10:19:32;-3.20;1.00
7784;DHT22;19359;51.402;6.778;2022-12-16T10:22:22;-3.10;1.00
7784;DHT22;19359;51.402;6.778;2022-12-16T10:25:14;-3.10;1.00
7784;DHT22;19359;51.402;6.778;2022-12-16T10:28:06;-3.10;1.00
7784;DHT22;19359;51.402;6.778;2022-12-16T10:30:53;-3.20;1.00
7784;DHT22;19359;51.402;6.778;2022-12-16T10:33:37;-3.00;1.00
7784;DHT22;19359;51.402;6.778;2022-12-16T10:36:23;-3.00;1.00
7784;DHT22;19359;51.402;6.778;2022-12-16T10:39:18;-2.90;1.00
7784;DHT22;19359;51.402;6.778;2022-12-16T10:42:14;-2.90;1.00
7784;DHT22;19359;51.402;6.778;2022-12-16T10:45:03;-2.90;1.00
7784;DHT22;19359;51.402;6.778;2022-12-16T10:47:47;-2.80;1.00
7784;DHT22;19359;51.402;6.778;2022-12-16T10:50:31;-2.80;1.00
7784;DHT22;19359;51.402;6.778;2022-12-16T10:53:18;-2.70;1.00
7784;DHT22;19359;51.402;6.778;2022-12-16T10:56:23;-2.60;1.00
7784;DHT22;19359;51.402;6.778;2022-12-16T10:59:17;-2.60;1.00
7784;DHT22;19359;51.402;6.778;2022-12-16T11:02:04;-2.50;1.00
7784;DHT22;19359;51.402;6.778;2022-12-16T11:04:50;-2.50;1.00
7784;DHT22;19359;51.402;6.778;2022-12-16T11:07:37;-2.50;1.00
7784;DHT22;19359;51.402;6.778;2022-12-16T11:10:28;-2.60;1.00
7784;DHT22;19359;51.402;6.778;2022-12-16T11:13:19;-2.40;1.00
7784;DHT22;19359;51.402;6.778;2022-12-16T11:16:06;-2.30;1.00
7784;DHT22;19359;51.402;6.778;2022-12-16T11:18:52;-2.30;1.00
7784;DHT22;19359;51.402;6.778;2022-12-16T11:21:36;-2.20;1.00
7784;DHT22;19359;51.402;6.778;2022-12-16T11:24:21;-2.30;1.00
7784;DHT22;19359;51.402;6.778;2022-12-16T11:27:23;-2.10;1.00
7784;DHT22;19359;51.402;6.778;2022-12-16T11:30:19;-2.10;1.00
7784;DHT22;19359;51.402;6.778;2022-12-16T11:33:10;-1.70;1.00
7784;DHT22;19359;51.402;6.778;2022-12-16T11:36:04;-2.00;1.00
7784;DHT22;19359;51.402;6.778;2022-12-16T11:38:54;-2.30;1.00
7784;DHT22;19359;51.402;6.778;2022-12-16T11:41:40;-2.00;1.00
7784;DHT22;19359;51.402;6.778;2022-12-16T11:44:29;-1.80;1.00
7784;DHT22;19359;51.402;6.778;2022-12-16T11:47:21;-1.90;1.00
7784;DHT22;19359;51.402;6.778;2022-12-16T11:50:10;-1.80;1.00
7784;DHT22;19359;51.402;6.778;2022-12-16T11:52:59;-1.70;1.00
7784;DHT22;19359;51.402;6.778;2022-12-16T11:55:44;-1.70;1.00
7784;DHT22;19359;51.402;6.778;2022-12-16T11:58:36;-1.70;1.00
7784;DHT22;19359;51.402;6.778;2022-12-16T12:01:27;-1.70;1.00
7784;DHT22;19359;51.402;6.778;2022-12-16T12:04:13;-1.50;1.00
7784;DHT22;19359;51.402;6.778;2022-12-16T12:07:08;-1.50;1.00
7784;DHT22;19359;51.402;6.778;2022-12-16T12:10:02;-1.40;1.00
7784;DHT22;19359;51.402;6.778;2022-12-16T12:12:54;-1.50;1.00
7784;DHT22;19359;51.402;6.778;2022-12-16T12:15:44;-1.40;1.00
7784;DHT22;19359;51.402;6.778;2022-12-16T12:18:39;-1.30;1.00
7784;DHT22;19359;51.402;6.778;2022-12-16T12:21:30;-1.30;1.00
7784;DHT22;19359;51.402;6.778;2022-12-16T12:24:24;-1.20;1.00
7784;DHT22;19359;51.402;6.778;2022-12-16T12:27:19;-1.30;1.00
7784;DHT22;19359;51.402;6.778;2022-12-16T12:30:10;-1.10;1.00
7784;DHT22;19359;51.402;6.778;2022-12-16T12:33:10;-1.10;1.00
7784;DHT22;19359;51.402;6.778;2022-12-16T12:36:02;-1.10;1.00
7784;DHT22;19359;51.402;6.778;2022-12-16T12:38:59;-1.10;1.00
7784;DHT22;19359;51.402;6.778;2022-12-16T12:41:56;-1.00;1.00
7784;DHT22;19359;51.402;6.778;2022-12-16T12:44:51;-0.70;1.00
7784;DHT22;19359;51.402;6.778;2022-12-16T12:47:43;-0.90;1.00
7784;DHT22;19359;51.402;6.778;2022-12-16T12:50:34;-0.90;1.00
7784;DHT22;19359;51.402;6.778;2022-12-16T12:53:29;-0.90;1.00
7784;DHT22;19359;51.402;6.778;2022-12-16T12:56:21;-0.90;1.00
7784;DHT22;19359;51.402;6.778;2022-12-16T12:59:15;-0.90;1.00
7784;DHT22;19359;51.402;6.778;2022-12-16T13:02:10;-0.90;1.00
7784;DHT22;19359;51.402;6.778;2022-12-16T13:05:04;-0.80;1.00
7784;DHT22;19359;51.402;6.778;2022-12-16T13:07:48;-0.80;1.00
7784;DHT22;19359;51.402;6.778;2022-12-16T13:10:47;-0.80;1.00
7784;DHT22;19359;51.402;6.778;2022-12-16T13:13:33;-0.60;1.00
7784;DHT22;19359;51.402;6.778;2022-12-16T13:19:59;-0.80;1.00
7784;DHT22;19359;51.402;6.778;2022-12-16T13:22:44;-0.80;1.00
7784;DHT22;19359;51.402;6.778;2022-12-16T13:25:35;-0.70;1.00
7784;DHT22;19359;51.402;6.778;2022-12-16T13:28:21;-0.70;1.00
7784;DHT22;19359;51.402;6.778;2022-12-16T13:31:09;-0.50;1.00
7784;DHT22;19359;51.402;6.778;2022-12-16T13:33:54;-0.50;1.00
7784;DHT22;19359;51.402;6.778;2022-12-16T13:36:43;-0.60;1.00
7784;DHT22;19359;51.402;6.778;2022-12-16T13:39:34;-0.60;1.00
7784;DHT22;19359;51.402;6.778;2022-12-16T13:42:32;-0.50;1.00
7784;DHT22;19359;51.402;6.778;2022-12-16T13:45:28;-0.50;1.00
7784;DHT22;19359;51.402;6.778;2022-12-16T13:48:33;-0.60;1.00
7784;DHT22;19359;51.402;6.778;2022-12-16T13:51:56;-0.60;1.00
7784;DHT22;19359;51.402;6.778;2022-12-16T13:54:47;-0.50;1.00
7784;DHT22;19359;51.402;6.778;2022-12-16T13:57:36;-0.50;1.00
7784;DHT22;19359;51.402;6.778;2022-12-16T14:00:23;-0.50;1.00
7784;DHT22;19359;51.402;6.778;2022-12-16T14:03:12;-0.60;12.40
7784;DHT22;19359;51.402;6.778;2022-12-16T14:05:59;-0.60;21.30
7784;DHT22;19359;51.402;6.778;2022-12-16T14:08:45;-0.60;1.00
7784;DHT22;19359;51.402;6.778;2022-12-16T14:11:44;-0.40;41.10
7784;DHT22;19359;51.402;6.778;2022-12-16T14:14:34;-0.60;1.00
7784;DHT22;19359;51.402;6.778;2022-12-16T14:17:24;-0.60;1.00
7784;DHT22;19359;51.402;6.778;2022-12-16T14:20:14;-0.60;71.20
7784;DHT22;19359;51.402;6.778;2022-12-16T14:23:09;-0.60;99.90
7784;DHT22;19359;51.402;6.778;2022-12-16T14:25:58;-0.70;99.90
7784;DHT22;19359;51.402;6.778;2022-12-16T14:28:47;-0.70;1.00
7784;DHT22;19359;51.402;6.778;2022-12-16T14:31:35;-0.60;99.90
7784;DHT22;19359;51.402;6.778;2022-12-16T14:34:22;-0.70;1.00
7784;DHT22;19359;51.402;6.778;2022-12-16T14:37:11;-0.50;1.00
7784;DHT22;19359;51.402;6.778;2022-12-16T14:39:56;-0.70;1.00
7784;DHT22;19359;51.402;6.778;2022-12-16T14:42:41;-0.70;99.90
7784;DHT22;19359;51.402;6.778;2022-12-16T14:45:28;-0.70;99.90
7784;DHT22;19359;51.402;6.778;2022-12-16T14:48:17;-0.70;1.00
7784;DHT22;19359;51.402;6.778;2022-12-16T14:51:24;-0.90;99.90
7784;DHT22;19359;51.402;6.778;2022-12-16T14:54:22;-0.80;1.00
7784;DHT22;19359;51.402;6.778;2022-12-16T14:57:12;-0.80;99.90
7784;DHT22;19359;51.402;6.778;2022-12-16T15:00:14;-0.80;99.90
7784;DHT22;19359;51.402;6.778;2022-12-16T15:03:02;-0.80;99.90
7784;DHT22;19359;51.402;6.778;2022-12-16T15:05:53;-0.80;99.90
7784;DHT22;19359;51.402;6.778;2022-12-16T15:08:47;-0.80;99.90
7784;DHT22;19359;51.402;6.778;2022-12-16T15:11:33;-0.90;1.00
7784;DHT22;19359;51.402;6.778;2022-12-16T15:14:23;-0.80;99.90
7784;DHT22;19359;51.402;6.778;2022-12-16T15:17:19;-0.80;99.90
7784;DHT22;19359;51.402;6.778;2022-12-16T15:20:06;-0.40;1.00
7784;DHT22;19359;51.402;6.778;2022-12-16T15:22:58;-0.80;1.00
7784;DHT22;19359;51.402;6.778;2022-12-16T15:25:48;-0.90;1.00
7784;DHT22;19359;51.402;6.778;2022-12-16T15:28:38;-0.90;1.00
7784;DHT22;19359;51.402;6.778;2022-12-16T15:31:24;-1.00;24.40
7784;DHT22;19359;51.402;6.778;2022-12-16T15:34:28;-0.80;1.00
7784;DHT22;19359;51.402;6.778;2022-12-16T15:37:21;-0.90;1.00
7784;DHT22;19359;51.402;6.778;2022-12-16T15:40:23;-1.00;1.00
7784;DHT22;19359;51.402;6.778;2022-12-16T15:43:24;-0.90;99.90
7784;DHT22;19359;51.402;6.778;2022-12-16T15:46:17;-0.90;99.90
7784;DHT22;19359;51.402;6.778;2022-12-16T15:49:02;-1.00;99.90
7784;DHT22;19359;51.402;6.778;2022-12-16T15:51:48;-0.90;99.90
7784;DHT22;19359;51.402;6.778;2022-12-16T15:54:49;-0.90;99.90
7784;DHT22;19359;51.402;6.778;2022-12-16T15:57:39;-0.90;99.90
7784;DHT22;19359;51.402;6.778;2022-12-16T16:00:25;-0.90;99.90
7784;DHT22;19359;51.402;6.778;2022-12-16T16:03:18;-0.70;99.90
7784;DHT22;19359;51.402;6.778;2022-12-16T16:06:03;-1.00;99.90
7784;DHT22;19359;51.402;6.778;2022-12-16T16:08:50;-1.00;99.90
7784;DHT22;19359;51.402;6.778;2022-12-16T16:11:35;-1.00;99.90
7784;DHT22;19359;51.402;6.778;2022-12-16T16:14:19;-1.10;99.90
7784;DHT22;19359;51.402;6.778;2022-12-16T16:17:12;-1.00;99.90
7784;DHT22;19359;51.402;6.778;2022-12-16T16:20:00;-1.70;99.90
7784;DHT22;19359;51.402;6.778;2022-12-16T16:22:44;-1.10;99.90
7784;DHT22;19359;51.402;6.778;2022-12-16T16:25:29;-1.00;99.90
7784;DHT22;19359;51.402;6.778;2022-12-16T16:28:13;-0.90;99.90
7784;DHT22;19359;51.402;6.778;2022-12-16T16:30:57;-0.80;99.90
7784;DHT22;19359;51.402;6.778;2022-12-16T16:33:41;-1.00;99.90
7784;DHT22;19359;51.402;6.778;2022-12-16T16:36:25;-1.00;99.90
7784;DHT22;19359;51.402;6.778;2022-12-16T16:39:10;-1.10;99.90
7784;DHT22;19359;51.402;6.778;2022-12-16T16:41:55;-1.00;99.90
7784;DHT22;19359;51.402;6.778;2022-12-16T16:44:45;-0.90;99.90
7784;DHT22;19359;51.402;6.778;2022-12-16T16:47:29;-1.00;99.90
7784;DHT22;19359;51.402;6.778;2022-12-16T16:50:14;-1.00;99.90
7784;DHT22;19359;51.402;6.778;2022-12-16T16:52:59;-0.80;99.90
7784;DHT22;19359;51.402;6.778;2022-12-16T16:55:43;-1.10;99.90
7784;DHT22;19359;51.402;6.778;2022-12-16T16:58:30;-1.00;99.90
7784;DHT22;19359;51.402;6.778;2022-12-16T17:01:18;-1.00;99.90
7784;DHT22;19359;51.402;6.778;2022-12-16T17:04:02;-1.00;99.90
7784;DHT22;19359;51.402;6.778;2022-12-16T17:06:47;-0.90;99.90
7784;DHT22;19359;51.402;6.778;2022-12-16T17:09:31;-1.00;99.90
7784;DHT22;19359;51.402;6.778;2022-12-16T17:12:18;-1.00;99.90
7784;DHT22;19359;51.402;6.778;2022-12-16T17:15:14;-1.00;99.90
7784;DHT22;19359;51.402;6.778;2022-12-16T17:17:58;-1.00;99.90
7784;DHT22;19359;51.402;6.778;2022-12-16T17:20:39;-1.00;99.90
7784;DHT22;19359;51.402;6.778;2022-12-16T17:23:23;-0.50;99.90
7784;DHT22;19359;51.402;6.778;2022-12-16T17:26:08;-1.00;99.90
7784;DHT22;19359;51.402;6.778;2022-12-16T17:28:53;-1.00;99.90
7784;DHT22;19359;51.402;6.778;2022-12-16T17:31:38;-0.90;99.90
7784;DHT22;19359;51.402;6.778;2022-12-16T17:34:22;-0.80;99.90
7784;DHT22;19359;51.402;6.778;2022-12-16T17:37:07;-0.90;99.90
7784;DHT22;19359;51.402;6.778;2022-12-16T17:39:50;-0.90;99.90
7784;DHT22;19359;51.402;6.778;2022-12-16T17:42:34;-0.90;99.90
7784;DHT22;19359;51.402;6.778;2022-12-16T17:45:19;-0.90;99.90
7784;DHT22;19359;51.402;6.778;2022-12-16T17:48:05;-0.90;99.90
7784;DHT22;19359;51.402;6.778;2022-12-16T17:50:49;-0.90;99.90
7784;DHT22;19359;51.402;6.778;2022-12-16T17:53:33;-0.90;99.90
7784;DHT22;19359;51.402;6.778;2022-12-16T17:56:17;-1.00;99.90
7784;DHT22;19359;51.402;6.778;2022-12-16T17:59:01;-1.00;99.90
7784;DHT22;19359;51.402;6.778;2022-12-16T18:01:45;-1.00;99.90
7784;DHT22;19359;51.402;6.778;2022-12-16T18:04:31;-1.00;99.90
7784;DHT22;19359;51.402;6.778;2022-12-16T18:07:15;-1.10;99.90
7784;DHT22;19359;51.402;6.778;2022-12-16T18:09:59;-1.10;99.90
7784;DHT22;19359;51.402;6.778;2022-12-16T18:12:43;-1.00;99.90
7784;DHT22;19359;51.402;6.778;2022-12-16T18:15:50;-1.00;99.90
7784;DHT22;19359;51.402;6.778;2022-12-16T18:18:48;-0.90;99.90
7784;DHT22;19359;51.402;6.778;2022-12-16T18:21:34;-1.00;99.90
7784;DHT22;19359;51.402;6.778;2022-12-16T18:24:18;-1.00;99.90
7784;DHT22;19359;51.402;6.778;2022-12-16T18:27:02;-1.00;99.90
7784;DHT22;19359;51.402;6.778;2022-12-16T18:29:46;-1.00;99.90
7784;DHT22;19359;51.402;6.778;2022-12-16T18:32:30;-1.00;99.90
7784;DHT22;19359;51.402;6.778;2022-12-16T18:35:14;-0.90;99.90
7784;DHT22;19359;51.402;6.778;2022-12-16T18:38:00;-1.00;99.90
7784;DHT22;19359;51.402;6.778;2022-12-16T18:40:44;-0.90;99.90
7784;DHT22;19359;51.402;6.778;2022-12-16T18:43:40;-1.00;99.90
7784;DHT22;19359;51.402;6.778;2022-12-16T18:46:35;-1.00;99.90
7784;DHT22;19359;51.402;6.778;2022-12-16T18:49:19;-1.00;99.90
7784;DHT22;19359;51.402;6.778;2022-12-16T18:52:04;-1.00;99.90
7784;DHT22;19359;51.402;6.778;2022-12-16T18:54:49;-1.00;99.90